Kezdőlap
METAR-TAF:

METAR-TAF

Repülőterek :

Red Lake, Ontario, Kanada

földrajzi szélesség: 51-04N, földrajzi hosszúság: 093-48W, magasság: 375 m

Jelenlegi meteorológiai megfigyelések

A jelentés 4 órával és 44 perccel ezelõtt készült, 02:00 UTC
Nyugat-délnyugati szél 2 kt
Hőmérséklet 19°C
Páratartalom 60%
Légköri nyomás 1019 hPa
Látótávolság: 24.1 km
Kevés felhő 8000 lábon
Szakadozott felhőzet 22000 lábon

METAR: CYRL 220200Z 24002KT 15SM FEW080 BKN220 19/11 A3008 RMK AC1CS7 AC TR LAST STFD OBS/NEXT 220900UTC SLP192 DENSITY ALT 1900FT

Idő: 01:44 (06:44 UTC)

Előrejelzés

A jelentés 11 órával és 4 perccel ezelõtt készült, 19:40 UTC
Az előrejelzés 21-én 20 óra UTC és 22-én 02 óra UTC között érvényes
Nyugat-délnyugati szél 6 kt
Látótávolság: 10 km
Szórványos felhőzet 6000 lábon
21-én 23 óra UTC és 22-én 01 óra UTC között fokozatosan kialakuló
Derült ég

TAF: CYRL 211940Z 2120/2202 25006KT P6SM SCT060 BECMG 2123/2201 SKC RMK NXT FCST BY 221100Z

Meteorológiai megfigyelések és előrejelzések több, mint 4000 repülőtéren (METAR és TAF jelentéseket).

A térképen piros és sárga pontok jelzik az elérhető meteorológiai állomásokat.

Mozgassa az egeret a pont fölött, hogy megjelenjen az állomás neve.

Azután kattintson az időjárási megfigyelések és előrejelzések megtekintéséhez.

A térkép megváltoztatása: kattintson a fekete keresztel jelölt zöld gombra ráközelítéshez, a vonallal jelölt zöld gombra távolításhoz, vagy a zöld nyilakra a szomszédos térképek eléréséhez.


METAR-TAF: